Time;durP1;ratioP1;P1;durP2;ratioP2;P2;SDS_P1;SDS_P2;PMS_P1;PMS_P2;Temp;Humidity;BMP_temperature;BMP_pressure;BME280_temperature;BME280_humidity;BME280_pressure;Samples;Min_cycle;Max_cycle;Signal;HPM_P1;HPM_P2
2021/06/12 00:00:25;;;;;;;1.15;1.00;;;12.90;75.70;;;;;;5018917;28;20021;-66
2021/06/12 00:02:52;;;;;;;2.90;1.10;;;13.10;74.80;;;;;;5016837;28;20025;-68
2021/06/12 00:05:19;;;;;;;1.25;0.80;;;13.30;75.10;;;;;;5023609;28;20049;-67
2021/06/12 00:07:46;;;;;;;1.52;0.93;;;13.60;73.90;;;;;;5001482;28;20091;-67
2021/06/12 00:10:21;;;;;;;1.20;0.98;;;13.80;72.50;;;;;;5014835;28;20021;-69
2021/06/12 00:12:49;;;;;;;1.40;1.30;;;13.90;72.70;;;;;;5003257;28;20119;-69
2021/06/12 00:15:19;;;;;;;1.58;1.40;;;14.10;71.70;;;;;;5000707;28;20179;-68
2021/06/12 00:17:47;;;;;;;1.70;1.23;;;14.30;71.30;;;;;;5020073;28;20047;-68
2021/06/12 00:20:18;;;;;;;1.08;0.80;;;14.40;71.00;;;;;;5015908;28;20060;-65
2021/06/12 00:22:45;;;;;;;1.50;0.70;;;14.60;67.50;;;;;;5001755;28;20025;-66
2021/06/12 00:25:13;;;;;;;0.63;0.60;;;14.80;65.40;;;;;;5017501;28;20576;-66
2021/06/12 00:27:41;;;;;;;4.20;3.33;;;15.00;65.30;;;;;;5019457;28;20028;-66
2021/06/12 00:30:09;;;;;;;1.35;0.82;;;15.20;63.90;;;;;;5014660;28;20037;-66
2021/06/12 00:32:38;;;;;;;4.38;0.80;;;15.30;63.10;;;;;;5003003;28;20025;-66
2021/06/12 00:35:08;;;;;;;1.27;1.00;;;15.40;61.90;;;;;;5016611;28;20021;-70
2021/06/12 00:37:35;;;;;;;3.42;1.83;;;15.70;61.20;;;;;;5018825;28;20026;-66
2021/06/12 00:40:03;;;;;;;4.35;3.08;;;15.80;59.70;;;;;;5015221;28;20108;-66
2021/06/12 00:42:30;;;;;;;3.90;2.40;;;15.90;58.40;;;;;;5018991;28;20041;-68
2021/06/12 00:44:57;;;;;;;1.40;0.75;;;15.90;58.80;;;;;;5000335;28;20037;-68
2021/06/12 00:47:24;;;;;;;0.82;0.55;;;16.00;57.00;;;;;;5017295;28;20025;-71
2021/06/12 00:49:51;;;;;;;0.40;0.35;;;16.10;58.10;;;;;;5021042;28;20068;-69
2021/06/12 00:52:18;;;;;;;0.73;0.60;;;16.20;58.50;;;;;;5012348;28;20018;-70
2021/06/12 00:54:45;;;;;;;0.60;0.52;;;16.40;59.20;;;;;;5001334;28;20795;-68
2021/06/12 00:57:13;;;;;;;0.93;0.60;;;16.60;57.20;;;;;;4987225;28;20861;-67
2021/06/12 00:59:40;;;;;;;1.27;0.50;;;16.80;57.40;;;;;;5012612;28;20022;-66
2021/06/12 01:02:07;;;;;;;0.90;0.50;;;16.90;56.40;;;;;;4986583;28;20107;-70
2021/06/12 01:04:34;;;;;;;0.43;0.43;;;17.10;55.90;;;;;;5004229;28;20827;-68
2021/06/12 01:07:01;;;;;;;0.70;0.70;;;17.30;55.00;;;;;;4987988;28;20029;-67
2021/06/12 01:09:28;;;;;;;0.98;0.63;;;17.50;53.90;;;;;;5006654;28;20037;-72
2021/06/12 01:12:31;;;;;;;6.15;4.55;;;17.60;52.60;;;;;;5005687;28;20041;-69
2021/06/12 01:15:05;;;;;;;1.45;1.13;;;17.60;53.40;;;;;;4987642;28;20034;-71
2021/06/12 01:17:53;;;;;;;0.75;0.60;;;17.70;51.70;;;;;;5005001;28;20105;-67
2021/06/12 01:20:41;;;;;;;0.45;0.43;;;17.70;53.70;;;;;;4997657;28;20123;-73
2021/06/12 01:23:14;;;;;;;0.70;0.60;;;17.90;54.00;;;;;;4998079;28;20065;-68
2021/06/12 01:26:22;;;;;;;2.28;0.85;;;18.00;52.00;;;;;;4993336;28;20121;-70
2021/06/12 01:29:14;;;;;;;1.58;0.52;;;18.00;52.80;;;;;;4936514;28;20125;-70
2021/06/12 01:31:43;;;;;;;1.80;0.65;;;18.00;53.40;;;;;;4995010;28;20026;-67
2021/06/12 01:34:11;;;;;;;1.60;0.80;;;17.80;54.00;;;;;;5000065;28;20033;-72
2021/06/12 01:36:39;;;;;;;2.58;0.90;;;17.70;55.10;;;;;;4996658;28;20484;-69
2021/06/12 01:39:06;;;;;;;0.30;0.30;;;17.50;55.30;;;;;;5000693;28;20022;-69
2021/06/12 01:41:35;;;;;;;0.40;0.40;;;17.50;51.70;;;;;;4982222;28;20065;-67
2021/06/12 01:44:03;;;;;;;0.57;0.30;;;17.50;53.10;;;;;;4999544;28;20100;-73
2021/06/12 01:46:30;;;;;;;0.88;0.45;;;17.50;51.70;;;;;;5001661;28;20050;-74
2021/06/12 01:49:00;;;;;;;2.13;1.92;;;17.50;51.00;;;;;;4998046;28;20112;-71
2021/06/12 01:51:27;;;;;;;1.35;1.00;;;17.50;51.40;;;;;;4977224;28;20467;-71
2021/06/12 01:53:56;;;;;;;1.95;1.50;;;17.60;51.40;;;;;;4995815;28;20640;-70
2021/06/12 01:56:27;;;;;;;0.90;0.63;;;17.50;50.00;;;;;;4998780;28;20025;-69
2021/06/12 01:58:55;;;;;;;0.47;0.40;;;17.30;48.90;;;;;;4985105;28;20026;-65
2021/06/12 02:01:23;;;;;;;2.30;1.40;;;17.10;50.00;;;;;;4997561;28;20069;-72
2021/06/12 02:03:51;;;;;;;0.43;0.43;;;17.00;50.20;;;;;;5002804;28;20026;-69
2021/06/12 02:06:20;;;;;;;0.40;0.40;;;17.10;50.50;;;;;;4997874;28;20045;-69
2021/06/12 02:08:47;;;;;;;0.50;0.40;;;17.00;49.50;;;;;;5004975;28;20034;-72
2021/06/12 02:11:17;;;;;;;0.40;0.30;;;16.90;49.40;;;;;;5005753;28;20030;-73
2021/06/12 02:13:44;;;;;;;1.00;0.30;;;16.90;50.30;;;;;;5009650;28;20117;-68
2021/06/12 02:16:13;;;;;;;0.98;0.20;;;16.80;51.10;;;;;;4988427;28;20022;-73
2021/06/12 02:18:45;;;;;;;0.20;0.20;;;16.90;49.50;;;;;;4988940;28;20610;-72
2021/06/12 02:21:14;;;;;;;0.77;0.22;;;16.90;49.90;;;;;;5005619;28;20457;-71
2021/06/12 02:23:41;;;;;;;0.52;0.40;;;16.90;49.90;;;;;;5010791;28;20029;-72
2021/06/12 02:26:09;;;;;;;0.30;0.30;;;17.00;51.00;;;;;;4659386;28;10000248;-74
2021/06/12 02:28:37;;;;;;;0.30;0.30;;;17.10;50.60;;;;;;5004688;28;20030;-71
2021/06/12 02:31:27;;;;;;;1.27;0.20;;;17.10;50.60;;;;;;5004938;28;20030;-72
2021/06/12 02:33:54;;;;;;;0.43;0.40;;;17.00;49.20;;;;;;5006044;28;20041;-72
2021/06/12 02:36:21;;;;;;;1.80;1.30;;;16.80;50.20;;;;;;5003924;28;20100;-73
2021/06/12 02:38:48;;;;;;;2.22;0.80;;;16.70;51.50;;;;;;5006537;28;20088;-73
2021/06/12 02:41:16;;;;;;;1.67;0.98;;;16.70;52.30;;;;;;4986938;28;20641;-73
2021/06/12 02:43:44;;;;;;;0.40;0.40;;;16.90;51.10;;;;;;5007663;28;20413;-75
2021/06/12 02:46:14;;;;;;;1.00;0.77;;;16.90;50.60;;;;;;5007237;28;20017;-75
2021/06/12 02:48:44;;;;;;;0.88;0.65;;;17.00;50.20;;;;;;4989065;28;20041;-71
2021/06/12 02:51:11;;;;;;;0.95;0.85;;;16.80;48.10;;;;;;5003904;28;20053;-70
2021/06/12 02:53:43;;;;;;;1.20;0.75;;;16.70;49.00;;;;;;5005284;28;20029;-70
2021/06/12 02:56:11;;;;;;;0.55;0.40;;;16.70;49.70;;;;;;4987609;28;20086;-73
2021/06/12 02:58:40;;;;;;;0.28;0.28;;;16.70;49.30;;;;;;5004937;28;20061;-71
2021/06/12 03:01:08;;;;;;;0.35;0.35;;;16.60;49.40;;;;;;5007029;28;20021;-70
2021/06/12 03:03:36;;;;;;;1.98;0.40;;;16.60;49.90;;;;;;5004935;28;20053;-70
2021/06/12 03:06:05;;;;;;;0.40;0.40;;;16.60;49.10;;;;;;5005075;28;20057;-66
2021/06/12 03:08:43;;;;;;;0.20;0.20;;;16.50;49.10;;;;;;5005230;28;20541;-70
2021/06/12 03:11:12;;;;;;;1.95;0.50;;;16.60;49.30;;;;;;5004548;28;20057;-65
2021/06/12 03:13:42;;;;;;;1.08;0.60;;;16.70;50.40;;;;;;5002608;28;20062;-68
2021/06/12 03:16:09;;;;;;;1.08;0.70;;;16.80;50.00;;;;;;5004209;28;20033;-66
2021/06/12 03:18:37;;;;;;;0.60;0.50;;;16.90;49.70;;;;;;4986127;28;20026;-69
2021/06/12 03:21:05;;;;;;;0.68;0.40;;;17.10;49.00;;;;;;4314344;28;10000623;-65
2021/06/12 03:23:34;;;;;;;0.75;0.50;;;17.20;50.00;;;;;;4986175;28;20052;-69
2021/06/12 03:26:02;;;;;;;0.40;0.40;;;17.50;49.20;;;;;;4994889;28;20041;-63
2021/06/12 03:28:31;;;;;;;0.30;0.30;;;17.60;48.50;;;;;;4982330;28;20586;-70
2021/06/12 03:31:00;;;;;;;0.32;0.20;;;17.70;47.80;;;;;;5006108;28;20693;-71
2021/06/12 03:33:27;;;;;;;0.80;0.43;;;17.80;47.80;;;;;;4988828;28;20117;-69
2021/06/12 03:35:55;;;;;;;1.48;1.05;;;17.80;47.50;;;;;;5005198;28;20022;-74
2021/06/12 03:38:23;;;;;;;0.50;0.35;;;17.80;48.80;;;;;;4982837;28;20139;-68
2021/06/12 03:40:50;;;;;;;0.43;0.43;;;17.70;47.20;;;;;;5000696;28;20037;-66
2021/06/12 03:43:20;;;;;;;0.52;0.52;;;17.60;47.00;;;;;;5005749;28;20021;-71
2021/06/12 03:45:51;;;;;;;0.30;0.30;;;17.50;48.50;;;;;;5005682;28;20065;-66
2021/06/12 03:48:22;;;;;;;0.40;0.40;;;17.40;48.00;;;;;;4982253;28;20060;-69
2021/06/12 03:50:51;;;;;;;2.03;1.10;;;17.30;48.50;;;;;;5005773;28;20127;-66
2021/06/12 03:53:21;;;;;;;2.55;1.95;;;17.50;49.80;;;;;;5006046;28;20025;-72
2021/06/12 03:55:54;;;;;;;1.98;1.08;;;17.80;47.60;;;;;;5005879;28;20565;-69
2021/06/12 03:58:21;;;;;;;1.10;0.80;;;17.80;47.50;;;;;;4999578;28;20026;-64
2021/06/12 04:00:48;;;;;;;1.45;0.70;;;17.70;47.50;;;;;;4983647;28;20029;-70
2021/06/12 04:03:15;;;;;;;2.15;0.70;;;17.90;48.00;;;;;;5006694;28;20034;-69
2021/06/12 04:05:42;;;;;;;2.72;0.55;;;18.00;47.40;;;;;;5003851;28;20423;-66
2021/06/12 04:08:10;;;;;;;0.75;0.40;;;18.10;46.70;;;;;;5000516;28;20052;-66
2021/06/12 04:10:37;;;;;;;1.13;0.75;;;18.10;46.30;;;;;;5004537;28;20026;-70
2021/06/12 04:13:04;;;;;;;0.77;0.55;;;17.90;47.20;;;;;;5005822;28;20026;-64
2021/06/12 04:15:31;;;;;;;0.88;0.47;;;18.00;47.20;;;;;;4985019;28;20030;-73
2021/06/12 04:18:07;;;;;;;0.45;0.45;;;18.00;47.40;;;;;;5005237;28;20025;-68
2021/06/12 04:20:39;;;;;;;0.43;0.40;;;18.00;46.40;;;;;;5004136;28;20029;-74
2021/06/12 04:23:07;;;;;;;0.60;0.43;;;18.00;48.00;;;;;;5006422;28;20552;-73
2021/06/12 04:25:34;;;;;;;0.50;0.45;;;18.00;47.80;;;;;;5003486;28;20612;-70
2021/06/12 04:28:01;;;;;;;0.52;0.40;;;18.00;47.40;;;;;;4988352;28;20029;-74
2021/06/12 04:30:28;;;;;;;1.25;0.50;;;18.10;48.10;;;;;;5005521;28;20112;-66
2021/06/12 04:32:55;;;;;;;0.63;0.38;;;18.10;47.00;;;;;;5005241;28;20026;-70
2021/06/12 04:35:23;;;;;;;0.40;0.40;;;18.20;46.80;;;;;;5004365;28;20030;-64
2021/06/12 04:37:50;;;;;;;1.08;0.57;;;18.10;46.70;;;;;;5005158;28;20041;-74
2021/06/12 04:40:17;;;;;;;4.28;1.55;;;18.10;46.80;;;;;;4999348;28;20594;-71
2021/06/12 04:42:44;;;;;;;2.83;1.55;;;18.10;47.00;;;;;;5000792;28;20034;-63
2021/06/12 04:45:12;;;;;;;1.27;0.90;;;18.20;47.60;;;;;;5005174;28;20033;-60
2021/06/12 04:47:39;;;;;;;2.15;0.95;;;18.10;48.20;;;;;;5005447;28;20022;-64
2021/06/12 04:50:07;;;;;;;0.95;0.55;;;18.10;48.20;;;;;;5004963;28;20053;-64
2021/06/12 04:52:34;;;;;;;1.60;0.80;;;18.10;47.10;;;;;;5003540;28;20021;-65
2021/06/12 04:55:01;;;;;;;2.45;1.52;;;18.10;47.00;;;;;;5006115;28;20025;-66
2021/06/12 04:57:28;;;;;;;2.08;1.48;;;18.10;47.10;;;;;;5003971;28;20587;-69
2021/06/12 04:59:55;;;;;;;3.13;2.22;;;18.20;47.70;;;;;;4986650;28;20365;-71
2021/06/12 05:02:22;;;;;;;2.95;1.90;;;18.30;47.90;;;;;;4999674;28;20034;-66
2021/06/12 05:04:48;;;;;;;1.73;1.05;;;18.40;47.10;;;;;;4985032;28;20042;-71
2021/06/12 05:07:16;;;;;;;2.95;2.63;;;18.50;46.40;;;;;;5001763;28;20030;-69
2021/06/12 05:09:43;;;;;;;2.47;1.80;;;18.70;46.10;;;;;;5004576;28;20033;-75
2021/06/12 05:12:10;;;;;;;2.03;1.33;;;18.90;45.50;;;;;;4982986;28;20041;-71
2021/06/12 05:14:37;;;;;;;1.95;1.25;;;19.00;45.30;;;;;;5003797;28;20076;-73
2021/06/12 05:17:07;;;;;;;0.88;0.70;;;19.10;44.50;;;;;;4985957;28;20026;-73
2021/06/12 05:19:34;;;;;;;1.05;0.88;;;18.80;44.50;;;;;;4985099;28;20667;-68
2021/06/12 05:22:01;;;;;;;0.80;0.80;;;18.90;45.30;;;;;;4977995;28;20061;-70
2021/06/12 05:24:28;;;;;;;0.77;0.60;;;19.00;44.20;;;;;;4998900;28;20045;-65
2021/06/12 05:26:55;;;;;;;1.90;0.77;;;18.90;44.50;;;;;;5004535;28;20068;-67
2021/06/12 05:29:22;;;;;;;1.27;0.90;;;19.00;44.20;;;;;;5003395;28;20022;-69
2021/06/12 05:31:49;;;;;;;2.42;1.20;;;19.20;44.40;;;;;;5002644;28;20095;-67
2021/06/12 05:34:16;;;;;;;1.27;0.95;;;19.20;42.80;;;;;;5003808;28;20389;-72
2021/06/12 05:36:43;;;;;;;0.65;0.50;;;19.20;43.30;;;;;;5002758;28;20400;-72
2021/06/12 05:39:10;;;;;;;0.70;0.55;;;19.20;43.10;;;;;;5004459;28;20576;-76
2021/06/12 05:41:39;;;;;;;1.20;0.60;;;18.90;43.70;;;;;;5002464;28;20054;-67
2021/06/12 05:44:09;;;;;;;0.98;0.85;;;19.00;44.10;;;;;;4999817;28;20026;-72
2021/06/12 05:46:36;;;;;;;2.05;1.10;;;19.00;43.90;;;;;;4998288;28;20030;-72
2021/06/12 05:49:03;;;;;;;1.42;0.98;;;18.90;44.30;;;;;;5004534;28;20022;-68
2021/06/12 05:51:30;;;;;;;1.13;0.93;;;18.50;44.70;;;;;;5004046;28;20484;-68
2021/06/12 05:53:57;;;;;;;1.02;0.70;;;17.90;46.10;;;;;;5005371;28;20520;-65
2021/06/12 05:56:24;;;;;;;1.73;1.20;;;17.50;46.60;;;;;;5003633;28;20030;-68
2021/06/12 05:58:51;;;;;;;2.13;1.13;;;17.20;47.80;;;;;;4999094;28;20027;-66
2021/06/12 06:01:18;;;;;;;2.55;1.63;;;16.80;48.80;;;;;;5000203;28;20030;-71
2021/06/12 06:03:45;;;;;;;2.13;1.65;;;16.60;50.00;;;;;;4997229;28;20041;-66
2021/06/12 06:06:12;;;;;;;2.03;1.42;;;16.40;50.10;;;;;;5000693;28;20061;-68
2021/06/12 06:08:39;;;;;;;1.23;1.00;;;16.30;50.60;;;;;;4999037;28;20084;-73
2021/06/12 06:11:06;;;;;;;3.15;1.13;;;16.30;51.10;;;;;;4999562;28;20017;-73
2021/06/12 06:13:40;;;;;;;0.80;0.80;;;16.30;51.10;;;;;;5006056;28;20030;-76
2021/06/12 06:16:08;;;;;;;1.58;1.20;;;16.30;50.50;;;;;;5004857;28;20022;-72
2021/06/12 06:18:36;;;;;;;2.63;1.83;;;16.20;51.50;;;;;;4982956;28;20033;-67
2021/06/12 06:21:05;;;;;;;2.45;2.05;;;16.00;52.60;;;;;;5004110;28;20114;-66
2021/06/12 06:23:32;;;;;;;3.30;1.98;;;15.90;52.10;;;;;;4999966;28;20116;-71
2021/06/12 06:26:00;;;;;;;3.67;2.72;;;15.80;52.50;;;;;;5005168;28;20749;-72
2021/06/12 06:28:27;;;;;;;2.83;2.20;;;15.80;52.10;;;;;;5004335;28;20041;-67
2021/06/12 06:30:54;;;;;;;3.85;2.25;;;15.60;53.50;;;;;;5004233;28;20026;-70
2021/06/12 06:33:23;;;;;;;4.60;4.00;;;15.50;53.60;;;;;;5002990;28;20392;-70
2021/06/12 06:35:51;;;;;;;4.50;3.40;;;15.40;54.30;;;;;;5001070;28;20405;-67
2021/06/12 06:38:19;;;;;;;3.67;2.80;;;15.20;54.90;;;;;;4977535;28;20030;-70
2021/06/12 06:40:46;;;;;;;3.10;1.98;;;15.10;55.10;;;;;;4992940;28;20053;-71
2021/06/12 06:43:13;;;;;;;3.25;2.40;;;15.00;56.00;;;;;;4986692;28;20064;-68
2021/06/12 06:45:41;;;;;;;2.67;2.30;;;14.80;56.20;;;;;;5004426;28;20433;-68
2021/06/12 06:48:09;;;;;;;2.78;1.73;;;14.70;56.50;;;;;;5003805;28;20030;-67
2021/06/12 06:50:36;;;;;;;2.45;2.00;;;14.60;57.00;;;;;;5003481;28;20022;-68
2021/06/12 06:53:03;;;;;;;3.28;2.38;;;14.40;58.00;;;;;;4997417;28;20117;-68
2021/06/12 06:55:30;;;;;;;13.00;10.25;;;14.30;58.40;;;;;;5004729;28;20452;-68
2021/06/12 06:57:58;;;;;;;4.70;3.30;;;14.10;59.10;;;;;;4990006;28;20469;-69
2021/06/12 07:00:26;;;;;;;4.95;3.00;;;14.00;60.20;;;;;;4990585;28;20111;-71
2021/06/12 07:02:54;;;;;;;3.33;2.72;;;13.80;61.20;;;;;;5002644;28;20516;-69
2021/06/12 07:05:21;;;;;;;5.75;4.22;;;13.60;62.20;;;;;;5037194;22;20140;-73
2021/06/12 07:07:48;;;;;;;6.32;4.38;;;13.40;62.70;;;;;;5028358;28;20778;-73
2021/06/12 07:10:15;;;;;;;5.88;4.15;;;13.20;62.80;;;;;;5040922;28;20086;-70
2021/06/12 07:12:42;;;;;;;4.85;3.45;;;13.10;63.30;;;;;;5047616;28;20017;-66
2021/06/12 07:15:11;;;;;;;5.22;3.55;;;13.00;64.20;;;;;;5047571;28;20020;-71
2021/06/12 07:17:38;;;;;;;5.47;3.85;;;12.80;64.40;;;;;;5047116;28;20070;-68
2021/06/12 07:20:07;;;;;;;5.22;4.05;;;12.80;66.30;;;;;;5045670;28;20828;-71
2021/06/12 07:22:34;;;;;;;4.53;3.33;;;12.70;66.70;;;;;;5046255;28;20086;-68
2021/06/12 07:25:01;;;;;;;4.18;3.20;;;12.60;66.00;;;;;;5046421;28;20080;-69
2021/06/12 07:27:28;;;;;;;5.10;4.32;;;12.50;66.70;;;;;;5047305;28;20474;-68
2021/06/12 07:29:55;;;;;;;6.30;4.65;;;12.40;67.10;;;;;;5047426;28;20029;-68
2021/06/12 07:32:22;;;;;;;6.47;4.90;;;12.20;67.70;;;;;;5046456;28;20112;-71
2021/06/12 07:34:49;;;;;;;7.32;5.82;;;12.10;68.40;;;;;;5045437;28;20102;-69
2021/06/12 07:37:16;;;;;;;7.30;6.25;;;12.00;69.10;;;;;;5047325;28;20428;-70
2021/06/12 07:39:44;;;;;;;9.95;7.20;;;11.90;70.40;;;;;;5037988;28;20136;-66
2021/06/12 07:42:11;;;;;;;11.73;9.10;;;11.80;70.40;;;;;;5046922;28;20032;-70
2021/06/12 07:44:38;;;;;;;21.42;16.88;;;11.70;71.00;;;;;;5041512;28;20029;-66
2021/06/12 07:47:05;;;;;;;9.73;8.00;;;11.60;70.60;;;;;;5038815;28;20372;-70
2021/06/12 07:49:32;;;;;;;12.43;10.57;;;11.60;70.70;;;;;;5039018;28;20618;-70
2021/06/12 07:51:59;;;;;;;10.82;7.80;;;11.60;70.80;;;;;;5037138;28;20033;-67
2021/06/12 07:54:27;;;;;;;9.55;7.65;;;11.60;70.30;;;;;;5039583;28;20017;-70
2021/06/12 07:56:54;;;;;;;8.55;7.13;;;11.70;70.30;;;;;;5037384;28;20781;-69
2021/06/12 07:59:20;;;;;;;8.18;6.20;;;11.60;70.20;;;;;;5040968;28;20028;-70
2021/06/12 08:01:47;;;;;;;8.88;5.72;;;11.50;70.60;;;;;;5037154;28;20025;-66
2021/06/12 08:04:14;;;;;;;6.38;5.00;;;11.50;71.10;;;;;;5039792;28;20025;-70
2021/06/12 08:06:41;;;;;;;7.00;5.95;;;11.50;70.40;;;;;;5037407;28;20017;-67
2021/06/12 08:09:08;;;;;;;9.75;7.45;;;11.60;69.70;;;;;;5036957;28;20029;-67
2021/06/12 08:11:35;;;;;;;8.73;6.78;;;11.50;70.50;;;;;;5038509;28;20031;-69
2021/06/12 08:14:02;;;;;;;6.93;6.07;;;11.50;71.50;;;;;;5039586;28;20026;-70
2021/06/12 08:16:29;;;;;;;7.78;5.32;;;11.40;70.80;;;;;;5037920;28;20028;-66
2021/06/12 08:18:56;;;;;;;5.82;4.72;;;11.40;71.10;;;;;;5022007;28;20017;-70
2021/06/12 08:21:23;;;;;;;8.52;5.25;;;11.30;70.80;;;;;;5037234;28;20024;-67
2021/06/12 08:23:50;;;;;;;5.45;4.20;;;11.50;70.00;;;;;;5038012;28;20370;-71
2021/06/12 08:26:17;;;;;;;6.03;3.97;;;11.50;70.10;;;;;;5039469;28;20047;-70
2021/06/12 08:28:45;;;;;;;14.20;10.40;;;11.40;70.70;;;;;;5039173;28;20491;-69
2021/06/12 08:31:12;;;;;;;11.68;7.50;;;11.30;71.40;;;;;;5036371;28;20108;-66
2021/06/12 08:33:39;;;;;;;13.05;7.97;;;11.30;71.20;;;;;;5038314;28;20036;-69
2021/06/12 08:36:06;;;;;;;104.65;77.13;;;11.10;72.80;;;;;;5038196;28;20566;-69
2021/06/12 08:38:33;;;;;;;63.88;47.72;;;10.90;74.30;;;;;;5035916;28;20025;-66
2021/06/12 08:41:00;;;;;;;43.75;32.78;;;10.70;75.40;;;;;;5036374;28;20044;-69
2021/06/12 08:43:30;;;;;;;113.90;83.15;;;10.60;76.40;;;;;;5040150;28;20761;-67
2021/06/12 08:45:59;;;;;;;285.92;216.55;;;10.50;76.70;;;;;;5037804;28;20463;-70
2021/06/12 08:48:28;;;;;;;157.63;117.40;;;10.30;77.30;;;;;;5036353;28;20036;-67
2021/06/12 08:50:56;;;;;;;50.95;36.92;;;10.30;77.50;;;;;;5038144;28;20025;-70
2021/06/12 08:53:24;;;;;;;70.68;52.88;;;10.30;77.30;;;;;;5037673;28;20021;-67
2021/06/12 08:55:51;;;;;;;41.28;32.20;;;10.40;77.80;;;;;;5039816;28;20518;-66
2021/06/12 08:58:18;;;;;;;31.40;22.50;;;10.30;77.50;;;;;;5037190;28;20021;-66
2021/06/12 09:00:46;;;;;;;32.22;23.27;;;10.20;78.30;;;;;;5038161;28;20510;-69
2021/06/12 09:03:24;;;;;;;31.85;22.77;;;10.20;78.60;;;;;;5037029;28;20087;-67
2021/06/12 09:06:01;;;;;;;45.95;33.35;;;10.10;78.70;;;;;;5037875;28;20061;-66
2021/06/12 09:08:33;;;;;;;43.30;31.35;;;10.10;79.10;;;;;;5037875;28;20730;-69
2021/06/12 09:11:06;;;;;;;54.95;40.95;;;10.00;78.80;;;;;;5037703;28;20033;-70
2021/06/12 09:13:40;;;;;;;47.55;34.25;;;9.90;79.00;;;;;;5038847;28;20027;-69
2021/06/12 09:16:21;;;;;;;23.15;17.80;;;9.90;79.60;;;;;;5039620;28;20021;-70
2021/06/12 09:18:49;;;;;;;9.52;7.85;;;10.00;80.20;;;;;;5037048;28;20781;-69
2021/06/12 09:21:30;;;;;;;15.45;7.00;;;10.10;79.90;;;;;;5034303;28;20116;-70
2021/06/12 09:23:59;;;;;;;8.52;6.78;;;10.00;80.90;;;;;;5036603;28;20073;-68
2021/06/12 09:26:48;;;;;;;6.25;5.25;;;9.90;81.50;;;;;;5036974;28;20033;-66
2021/06/12 09:29:20;;;;;;;8.75;5.90;;;9.80;81.60;;;;;;5038227;28;20032;-70
2021/06/12 09:31:51;;;;;;;7.25;5.72;;;9.70;82.20;;;;;;5037545;28;20116;-69
2021/06/12 09:34:22;;;;;;;5.93;4.28;;;9.60;82.80;;;;;;5043480;28;20028;-71
2021/06/12 09:36:50;;;;;;;8.13;5.05;;;9.60;81.70;;;;;;5043578;28;20025;-66
2021/06/12 09:39:23;;;;;;;5.22;3.50;;;9.70;79.80;;;;;;5043660;28;20092;-68
2021/06/12 09:41:52;;;;;;;4.15;3.20;;;9.80;78.70;;;;;;5043463;28;20021;-66
2021/06/12 09:44:37;;;;;;;5.55;3.00;;;10.00;77.50;;;;;;5044118;28;20104;-69
2021/06/12 09:47:25;;;;;;;6.28;3.15;;;10.20;75.40;;;;;;5019588;28;20178;-67
2021/06/12 09:49:58;;;;;;;8.32;3.50;;;10.30;74.70;;;;;;5020053;28;20033;-70
2021/06/12 09:52:25;;;;;;;8.60;4.53;;;10.30;74.70;;;;;;5043611;28;20047;-71
2021/06/12 09:54:52;;;;;;;10.57;4.45;;;10.30;75.20;;;;;;5043426;28;20039;-67
2021/06/12 09:57:28;;;;;;;9.40;2.78;;;10.40;74.40;;;;;;5025490;28;20083;-66
2021/06/12 09:59:57;;;;;;;5.63;2.72;;;10.60;72.20;;;;;;5038615;28;20098;-70
2021/06/12 10:02:46;;;;;;;5.00;3.35;;;10.70;71.90;;;;;;5044311;28;20372;-71
2021/06/12 10:05:16;;;;;;;7.10;6.20;;;10.70;71.60;;;;;;5043839;28;20150;-71
2021/06/12 10:07:43;;;;;;;10.23;7.90;;;10.50;74.00;;;;;;5043574;28;20033;-71
2021/06/12 10:10:15;;;;;;;11.73;8.73;;;10.20;75.40;;;;;;5042811;28;20036;-70
2021/06/12 10:12:42;;;;;;;10.75;8.55;;;10.00;76.80;;;;;;5043903;28;20028;-69
2021/06/12 10:15:12;;;;;;;11.07;8.35;;;9.80;78.00;;;;;;5043847;28;20029;-68
2021/06/12 10:17:50;;;;;;;9.70;7.47;;;9.70;78.40;;;;;;5043571;28;20044;-71
2021/06/12 10:20:23;;;;;;;7.53;6.07;;;9.70;79.50;;;;;;5044586;28;20028;-70
2021/06/12 10:22:53;;;;;;;7.95;5.95;;;9.50;80.00;;;;;;5044448;28;20044;-66
2021/06/12 10:25:21;;;;;;;6.85;5.18;;;9.40;80.00;;;;;;5044882;28;20029;-66
2021/06/12 10:27:49;;;;;;;7.50;5.80;;;9.30;81.40;;;;;;5043866;28;20025;-68
2021/06/12 10:30:20;;;;;;;7.50;4.20;;;9.20;82.10;;;;;;5028354;28;20090;-69
2021/06/12 10:32:53;;;;;;;7.75;4.78;;;9.10;82.00;;;;;;5047487;28;20013;-70
2021/06/12 10:35:23;;;;;;;18.38;10.20;;;8.90;83.40;;;;;;5041028;28;20028;-66
2021/06/12 10:38:16;;;;;;;9.48;4.80;;;9.00;82.80;;;;;;5048106;28;20031;-68
2021/06/12 10:40:49;;;;;;;9.93;7.20;;;9.00;82.40;;;;;;5029980;28;20438;-67
2021/06/12 10:43:25;;;;;;;12.13;5.07;;;8.80;84.20;;;;;;5048024;28;20029;-71
2021/06/12 10:46:12;;;;;;;5.88;3.53;;;8.80;84.00;;;;;;5047754;28;20032;-71
2021/06/12 10:48:46;;;;;;;5.53;3.63;;;8.70;84.20;;;;;;5047450;28;20494;-71
2021/06/12 10:51:36;;;;;;;5.60;3.67;;;8.60;85.20;;;;;;5047626;28;20025;-70
2021/06/12 10:54:09;;;;;;;8.70;4.38;;;8.60;85.00;;;;;;5047376;28;20017;-66
2021/06/12 10:56:41;;;;;;;6.72;3.92;;;8.40;85.60;;;;;;5047142;28;20081;-69
2021/06/12 10:59:10;;;;;;;6.70;4.38;;;8.30;87.10;;;;;;5047689;28;20025;-67
2021/06/12 11:01:37;;;;;;;7.90;3.92;;;8.40;86.10;;;;;;5048015;28;20040;-67
2021/06/12 11:07:06;;;;;;;6.03;4.10;;;8.30;86.50;;;;;;5047619;28;20083;-70
2021/06/12 11:09:34;;;;;;;7.68;3.15;;;8.20;87.20;;;;;;5046278;28;20112;-66
2021/06/12 11:12:30;;;;;;;5.93;3.47;;;8.20;85.10;;;;;;5047013;28;20032;-68
2021/06/12 11:15:04;;;;;;;8.73;5.35;;;8.30;85.00;;;;;;5047211;28;20032;-68
2021/06/12 11:17:31;;;;;;;10.98;7.50;;;8.20;85.90;;;;;;5047150;28;20083;-66
2021/06/12 11:20:01;;;;;;;8.63;5.65;;;8.10;86.80;;;;;;5046635;28;20044;-69
2021/06/12 11:22:35;;;;;;;8.38;4.45;;;8.00;87.50;;;;;;5046470;28;20025;-71
2021/06/12 11:25:24;;;;;;;6.88;4.43;;;7.90;87.20;;;;;;5047123;28;20025;-67
2021/06/12 11:28:15;;;;;;;6.30;3.92;;;7.90;88.00;;;;;;5047105;28;20025;-66
2021/06/12 11:30:44;;;;;;;12.05;4.90;;;7.80;88.80;;;;;;5039715;28;20848;-70
2021/06/12 11:33:13;;;;;;;8.45;4.82;;;7.90;88.00;;;;;;5045915;28;20570;-67
2021/06/12 11:35:59;;;;;;;5.93;4.20;;;7.80;88.60;;;;;;5045959;28;20020;-69
2021/06/12 11:38:38;;;;;;;7.47;5.18;;;7.80;88.40;;;;;;5046772;28;20025;-65
2021/06/12 11:41:11;;;;;;;10.18;4.22;;;7.80;88.00;;;;;;5045535;28;20145;-66
2021/06/12 11:43:44;;;;;;;6.80;4.38;;;7.70;89.00;;;;;;5046218;28;20122;-69
2021/06/12 11:46:33;;;;;;;6.75;4.70;;;7.50;90.10;;;;;;5045902;28;20083;-70
2021/06/12 11:49:03;;;;;;;9.07;6.53;;;7.50;90.50;;;;;;5041436;28;20029;-70
2021/06/12 11:51:33;;;;;;;8.63;6.10;;;7.40;90.60;;;;;;5046368;28;20017;-66
2021/06/12 11:54:29;;;;;;;9.23;7.03;;;7.60;90.30;;;;;;5046422;28;20036;-67
2021/06/12 11:56:59;;;;;;;9.80;7.07;;;7.60;90.10;;;;;;5046140;28;20049;-69
2021/06/12 11:59:31;;;;;;;7.88;6.35;;;7.60;89.70;;;;;;5046633;28;20491;-66
2021/06/12 12:02:06;;;;;;;9.68;7.55;;;7.60;89.90;;;;;;5046636;28;20052;-67
2021/06/12 12:04:41;;;;;;;10.48;7.30;;;7.60;89.60;;;;;;5045235;28;20103;-70
2021/06/12 12:07:14;;;;;;;9.40;6.63;;;7.50;90.20;;;;;;5046438;28;20095;-68
2021/06/12 12:09:46;;;;;;;10.85;6.97;;;7.40;90.30;;;;;;5045699;28;20075;-66
2021/06/12 12:12:22;;;;;;;9.03;7.17;;;7.40;89.90;;;;;;5045839;28;20021;-67
2021/06/12 12:14:54;;;;;;;10.60;7.47;;;7.40;90.10;;;;;;5046542;28;20032;-66
2021/06/12 12:17:29;;;;;;;7.25;5.75;;;7.40;89.90;;;;;;5046477;28;20741;-66
2021/06/12 12:20:10;;;;;;;8.35;6.00;;;7.40;90.10;;;;;;5045893;28;20025;-66
2021/06/12 12:22:39;;;;;;;7.30;5.20;;;7.40;90.20;;;;;;5040326;28;20028;-70
2021/06/12 12:25:09;;;;;;;7.07;5.55;;;7.40;90.60;;;;;;5046525;28;20060;-67
2021/06/12 12:27:36;;;;;;;7.93;6.32;;;7.30;90.70;;;;;;5045903;28;20059;-66
2021/06/12 12:30:05;;;;;;;8.45;5.97;;;7.20;91.00;;;;;;5045819;28;20033;-70
2021/06/12 12:32:32;;;;;;;10.88;7.15;;;7.10;91.30;;;;;;5038959;28;20082;-69
2021/06/12 12:35:14;;;;;;;10.02;6.43;;;7.10;91.10;;;;;;5045944;28;20036;-68
2021/06/12 12:37:41;;;;;;;9.63;6.93;;;7.10;91.10;;;;;;5046294;28;20479;-66
2021/06/12 12:40:22;;;;;;;8.93;6.47;;;7.00;91.20;;;;;;5045938;28;20045;-70
2021/06/12 12:43:02;;;;;;;10.23;6.88;;;7.00;91.40;;;;;;5045912;28;20062;-69
2021/06/12 12:45:29;;;;;;;9.50;6.30;;;7.10;91.10;;;;;;5045760;28;20063;-70
2021/06/12 12:47:57;;;;;;;8.40;6.95;;;7.00;91.50;;;;;;5039330;28;20028;-71
2021/06/12 12:50:24;;;;;;;7.45;6.30;;;6.90;91.60;;;;;;5047116;28;20029;-69
2021/06/12 12:53:20;;;;;;;9.07;6.32;;;7.00;91.40;;;;;;5046154;28;20061;-68
2021/06/12 12:56:08;;;;;;;11.88;7.20;;;7.00;91.50;;;;;;5026109;28;20171;-68
2021/06/12 12:58:37;;;;;;;9.80;6.43;;;6.90;91.40;;;;;;5049968;28;20017;-66
2021/06/12 13:01:13;;;;;;;8.00;6.60;;;6.90;91.40;;;;;;5049942;28;20747;-67
2021/06/12 13:03:48;;;;;;;9.60;6.88;;;6.80;91.60;;;;;;5048651;28;20028;-68
2021/06/12 13:06:41;;;;;;;9.57;7.18;;;6.80;91.70;;;;;;5049897;28;20380;-71